Terminal Aerodrome Forecast
Issued by NWS

Home | Current Version | Previous Version | Text Only | Print | Product List | Glossary On
Versions: 1 2 3 4 5 6 7 8 9 10 11 12
000
FTUS44 KTSA 210500
TAFXNA
TAF
KXNA 210520Z 2106/2206 15004KT P6SM SCT050 BKN120
      TEMPO 2108/2112 4SM BR
     FM211200 18005KT P6SM OVC020
      TEMPO 2112/2116 5SM -SHRA OVC010
     FM211600 21006KT P6SM OVC015
     FM212000 26005KT P6SM BKN025
     FM220300 34005KT P6SM BKN015=

USA.gov is the U.S. government's official web portal to all federal, state and local government web resources and services.